Time;durP1;ratioP1;P1;durP2;ratioP2;P2;SDS_P1;SDS_P2;PMS_P1;PMS_P2;Temp;Humidity;BMP_temperature;BMP_pressure;BME280_temperature;BME280_humidity;BME280_pressure;Samples;Min_cycle;Max_cycle;Signal;HPM_P1;HPM_P2
2021/12/23 00:02:12;;;;;;;22.77;12.63;;;1.90;70.40;;;4.97;55.65;101788.97;4861842;29;20197;-63
2021/12/23 00:04:40;;;;;;;19.83;12.73;;;2.00;70.30;;;4.96;55.39;101782.91;4861251;29;20228;-62
2021/12/23 00:07:08;;;;;;;14.47;10.13;;;2.00;70.90;;;4.97;55.48;101770.69;4861992;29;20190;-65
2021/12/23 00:10:09;;;;;;;18.07;12.17;;;2.00;70.10;;;4.97;55.38;101765.47;4861957;29;20656;-65
2021/12/23 00:12:29;;;;;;;18.30;12.47;;;2.00;70.00;;;4.89;55.68;101763.44;4862174;29;20232;-60
2021/12/23 00:14:57;;;;;;;17.60;12.00;;;2.00;69.60;;;4.83;55.32;101758.66;4861870;29;20202;-61
2021/12/23 00:17:41;;;;;;;16.00;12.10;;;2.00;69.40;;;4.74;55.64;101754.94;4861695;29;20723;-62
2021/12/23 00:25:23;;;;;;;19.27;12.47;;;1.90;69.50;;;4.64;55.63;101716.63;4861180;29;20220;-62
2021/12/23 00:27:50;;;;;;;18.93;13.23;;;1.90;69.80;;;4.64;55.26;101708.78;4861358;29;20292;-65
2021/12/23 00:30:18;;;;;;;17.00;10.73;;;1.90;69.80;;;4.70;55.36;101705.75;4861713;29;20292;-62
2021/12/23 00:32:47;;;;;;;16.40;11.47;;;1.90;69.80;;;4.73;55.54;101710.75;4860330;29;20577;-64
2021/12/23 00:35:14;;;;;;;17.00;10.63;;;1.90;70.10;;;4.75;55.59;101716.69;4861775;29;20198;-60
2021/12/23 00:37:45;;;;;;;17.97;12.77;;;1.90;70.10;;;4.84;55.50;101696.91;4861019;29;20296;-65
2021/12/23 00:40:13;;;;;;;17.43;11.67;;;2.00;70.30;;;4.92;56.20;101695.38;4860257;29;20193;-64
2021/12/23 00:42:40;;;;;;;15.83;12.07;;;2.00;70.30;;;4.97;54.79;101698.47;4860671;29;20505;-64
2021/12/23 00:45:09;;;;;;;17.40;11.83;;;2.00;70.20;;;5.02;55.22;101700.72;4861323;29;20206;-63
2021/12/23 00:47:36;;;;;;;15.90;11.70;;;2.10;70.00;;;5.05;55.48;101696.13;4861213;29;20201;-64
2021/12/23 00:50:07;;;;;;;16.47;12.03;;;2.10;69.90;;;5.07;55.14;101691.63;4861400;29;20285;-63
2021/12/23 00:52:37;;;;;;;15.57;11.57;;;2.10;69.70;;;5.04;55.38;101701.47;4860472;29;20215;-62
2021/12/23 00:55:07;;;;;;;18.20;11.40;;;2.10;69.30;;;4.93;55.62;101697.06;4860914;29;20739;-61
2021/12/23 00:57:40;;;;;;;17.83;12.47;;;2.10;69.10;;;4.82;55.47;101697.84;4860975;29;20229;-63
2021/12/23 01:00:11;;;;;;;17.97;11.27;;;2.10;68.70;;;4.72;55.47;101699.47;4861673;29;20220;-62
2021/12/23 01:02:43;;;;;;;17.27;11.70;;;2.10;68.80;;;4.68;55.50;101702.44;4860771;29;20201;-64
2021/12/23 01:05:16;;;;;;;14.60;10.83;;;2.00;69.50;;;4.68;55.46;101708.47;4861143;29;20206;-65
2021/12/23 01:07:44;;;;;;;16.80;11.17;;;2.00;69.00;;;4.72;55.08;101701.25;4860991;29;20197;-62
2021/12/23 01:10:12;;;;;;;13.57;10.93;;;2.00;69.20;;;4.77;55.47;101701.75;4860824;29;20201;-63
2021/12/23 01:12:47;;;;;;;16.63;11.77;;;1.90;69.20;;;4.82;55.01;101692.63;4860307;29;20200;-63
2021/12/23 01:15:38;;;;;;;14.93;10.67;;;2.00;69.50;;;4.87;55.21;101697.53;4860403;29;20667;-60
2021/12/23 01:18:13;;;;;;;18.40;11.53;;;2.00;69.80;;;4.92;55.50;101691.97;4860664;29;20281;-63
2021/12/23 01:20:52;;;;;;;16.70;11.90;;;2.00;69.70;;;4.88;54.70;101688.75;4860830;29;20201;-64
2021/12/23 01:23:22;;;;;;;18.57;12.50;;;2.00;69.20;;;4.87;55.22;101681.88;4860344;29;20221;-62
2021/12/23 01:25:52;;;;;;;16.57;12.13;;;2.10;69.40;;;4.90;54.80;101679.00;4860873;29;20209;-64
2021/12/23 01:28:20;;;;;;;17.40;11.97;;;2.10;69.30;;;4.90;55.17;101671.19;4860923;29;20754;-63
2021/12/23 01:30:49;;;;;;;17.77;12.50;;;2.10;69.20;;;4.93;54.68;101670.97;4860185;29;20208;-64
2021/12/23 01:33:16;;;;;;;17.53;11.83;;;2.10;69.30;;;5.01;55.71;101673.84;4860357;29;20236;-63
2021/12/23 01:35:49;;;;;;;16.47;12.30;;;2.10;69.30;;;5.10;55.21;101662.72;4861064;29;20246;-62
2021/12/23 01:38:17;;;;;;;18.40;11.50;;;2.20;69.50;;;5.19;54.73;101669.84;4860915;29;20228;-63
2021/12/23 01:40:46;;;;;;;17.03;11.87;;;2.20;69.40;;;5.26;54.91;101673.63;4860734;29;20244;-64
2021/12/23 01:43:16;;;;;;;17.37;11.07;;;2.20;69.20;;;5.27;54.98;101654.44;4859040;29;20264;-66
2021/12/23 01:45:47;;;;;;;18.40;13.20;;;2.20;68.90;;;5.26;53.56;101652.75;4860724;29;20201;-64
2021/12/23 01:48:16;;;;;;;15.77;11.53;;;2.30;68.80;;;5.30;54.75;101648.94;4860290;29;20194;-65
2021/12/23 01:50:45;;;;;;;19.43;11.80;;;2.30;68.90;;;5.36;54.31;101658.94;4860722;29;20212;-62
2021/12/23 01:53:15;;;;;;;16.97;11.77;;;2.30;69.00;;;5.38;54.19;101656.19;4860248;29;20232;-63
2021/12/23 01:55:43;;;;;;;14.13;11.10;;;2.30;69.50;;;5.34;54.49;101666.06;4861039;29;20193;-61
2021/12/23 01:58:13;;;;;;;19.87;12.00;;;2.30;68.50;;;5.32;54.76;101667.97;4860179;29;20256;-61
2021/12/23 02:00:43;;;;;;;17.67;11.83;;;2.30;68.60;;;5.27;55.06;101675.31;4860293;29;20205;-59
2021/12/23 02:03:11;;;;;;;17.27;12.37;;;2.40;68.50;;;5.27;53.72;101659.66;4860357;29;20593;-63
2021/12/23 02:05:40;;;;;;;16.73;11.17;;;2.40;68.60;;;5.32;54.04;101667.97;4861048;29;20205;-60
2021/12/23 02:08:28;;;;;;;18.27;13.50;;;2.40;68.50;;;5.33;53.93;101659.16;4864049;29;20281;-64
2021/12/23 02:10:58;;;;;;;19.40;11.67;;;2.40;68.50;;;5.37;54.02;101650.13;4864376;29;20202;-64
2021/12/23 02:13:25;;;;;;;15.57;11.17;;;2.40;68.70;;;5.42;54.26;101648.00;4862347;29;20648;-64
2021/12/23 02:15:52;;;;;;;18.60;13.00;;;2.40;68.70;;;5.46;54.23;101644.22;4862508;29;20209;-64
2021/12/23 02:18:20;;;;;;;14.33;10.60;;;2.50;68.80;;;5.46;54.59;101625.13;4862594;29;20668;-62
2021/12/23 02:20:49;;;;;;;15.90;11.43;;;2.50;68.50;;;5.48;53.97;101637.09;4861188;29;20547;-63
2021/12/23 02:23:17;;;;;;;15.43;11.60;;;2.50;68.60;;;5.52;53.51;101626.41;4860649;29;20221;-64
2021/12/23 02:25:44;;;;;;;15.70;11.13;;;2.50;68.40;;;5.53;54.36;101620.25;4862412;29;20204;-63
2021/12/23 02:28:15;;;;;;;16.10;11.33;;;2.50;68.30;;;5.57;53.89;101619.03;4862559;29;20648;-62
2021/12/23 02:30:45;;;;;;;15.67;10.93;;;2.60;68.40;;;5.61;53.40;101631.72;4862142;29;20194;-65
2021/12/23 02:33:12;;;;;;;17.20;12.27;;;2.60;68.40;;;5.61;54.24;101628.31;4861991;29;20591;-62
2021/12/23 02:35:40;;;;;;;16.23;11.33;;;2.60;68.20;;;5.61;54.12;101620.50;4862794;29;20208;-64
2021/12/23 02:38:08;;;;;;;14.87;10.90;;;2.60;68.20;;;5.65;53.47;101621.91;4862454;29;20217;-62
2021/12/23 02:40:38;;;;;;;16.43;11.50;;;2.60;69.00;;;5.73;54.29;101624.75;4862477;29;20208;-65
2021/12/23 02:43:12;;;;;;;13.70;10.70;;;2.60;68.40;;;5.80;53.71;101620.69;4860722;29;20221;-66
2021/12/23 02:45:42;;;;;;;16.17;11.07;;;2.70;68.70;;;5.89;53.45;101618.22;4862113;29;20198;-62
2021/12/23 02:48:15;;;;;;;17.90;11.67;;;2.70;68.50;;;5.96;53.06;101611.53;4862461;29;20189;-63
2021/12/23 02:50:46;;;;;;;18.50;12.13;;;2.80;68.40;;;5.98;53.27;101608.78;4862327;29;20196;-65
2021/12/23 02:53:16;;;;;;;17.43;11.17;;;2.90;68.10;;;5.94;53.15;101597.75;4861985;29;20236;-64
2021/12/23 02:55:44;;;;;;;16.83;11.30;;;2.90;67.90;;;5.93;53.00;101587.44;4861890;29;20282;-64
2021/12/23 02:58:12;;;;;;;14.47;10.60;;;2.90;67.80;;;5.94;53.31;101574.22;4862575;29;20221;-62
2021/12/23 03:00:43;;;;;;;18.03;11.87;;;2.90;67.90;;;5.93;52.84;101569.16;4862821;29;20593;-63
2021/12/23 03:03:10;;;;;;;16.70;12.53;;;2.90;67.70;;;5.82;53.43;101569.16;4862029;29;20240;-64
2021/12/23 03:05:38;;;;;;;14.60;11.23;;;2.90;67.30;;;5.73;53.30;101555.03;4861863;29;20227;-64
2021/12/23 03:08:05;;;;;;;16.13;11.80;;;2.90;67.30;;;5.70;53.07;101554.47;4861914;29;20201;-65
2021/12/23 03:10:34;;;;;;;16.47;11.67;;;2.90;67.50;;;5.68;53.15;101549.34;4861916;29;20202;-65
2021/12/23 03:13:01;;;;;;;15.50;11.73;;;2.90;67.50;;;5.65;53.10;101539.19;4861191;29;20237;-65
2021/12/23 03:15:29;;;;;;;18.43;12.43;;;2.80;67.60;;;5.67;53.56;101531.22;4825547;29;1068312;-63
2021/12/23 03:17:56;;;;;;;21.20;12.30;;;2.80;67.70;;;5.69;53.27;101537.97;4862626;29;20221;-64
2021/12/23 03:20:24;;;;;;;16.20;11.73;;;2.80;67.70;;;5.64;53.72;101534.06;4862915;29;20684;-64
2021/12/23 03:22:51;;;;;;;14.77;10.60;;;2.80;67.50;;;5.60;53.55;101530.03;4862551;29;20217;-61
2021/12/23 03:25:18;;;;;;;16.93;11.63;;;2.70;67.50;;;5.58;54.48;101516.28;4862747;29;20193;-63
2021/12/23 03:27:47;;;;;;;16.00;12.27;;;2.70;67.60;;;5.60;53.86;101511.78;4863099;29;20217;-65
2021/12/23 03:30:14;;;;;;;17.50;12.63;;;2.70;68.00;;;5.66;53.71;101503.47;4862832;29;20569;-65
2021/12/23 03:32:41;;;;;;;16.23;11.80;;;2.70;68.40;;;5.73;53.50;101496.78;4862016;29;20222;-62
2021/12/23 03:35:09;;;;;;;16.83;11.50;;;2.70;68.60;;;5.83;53.94;101495.06;4862764;29;20198;-64
2021/12/23 03:37:37;;;;;;;18.20;12.77;;;2.80;68.80;;;5.92;53.83;101489.13;4862147;29;20307;-61
2021/12/23 03:40:06;;;;;;;17.73;12.27;;;2.80;68.80;;;5.96;53.09;101495.75;4862276;29;20190;-64
2021/12/23 03:42:34;;;;;;;17.50;12.73;;;2.90;68.40;;;6.00;54.08;101499.78;4862340;29;20244;-65
2021/12/23 03:45:07;;;;;;;17.00;12.37;;;2.90;68.10;;;6.02;53.02;101500.47;4861926;29;20232;-63
2021/12/23 03:47:35;;;;;;;15.50;11.20;;;2.90;68.20;;;6.02;53.63;101476.94;4863066;29;20307;-62
2021/12/23 03:50:05;;;;;;;16.10;12.07;;;2.90;68.10;;;6.02;52.96;101471.72;4860924;29;20688;-63
2021/12/23 03:52:33;;;;;;;16.80;12.67;;;3.00;68.00;;;6.00;52.90;101471.03;4861731;29;20226;-64
2021/12/23 03:55:02;;;;;;;16.93;11.50;;;3.00;67.90;;;5.96;53.69;101469.63;4862253;29;20250;-64
2021/12/23 03:57:30;;;;;;;17.03;12.37;;;3.00;67.80;;;5.84;53.00;101454.94;4862283;29;20269;-63
2021/12/23 03:59:57;;;;;;;17.73;12.37;;;3.00;67.70;;;5.79;53.51;101446.66;4862055;29;20201;-64
2021/12/23 04:02:26;;;;;;;15.67;11.67;;;2.90;67.80;;;5.81;54.03;101434.28;4860935;29;20595;-63
2021/12/23 04:04:53;;;;;;;18.20;12.50;;;3.00;68.00;;;5.87;54.24;101420.78;4861867;29;20683;-65
2021/12/23 04:07:21;;;;;;;18.60;12.50;;;3.00;68.00;;;5.86;54.05;101416.50;4861791;29;20283;-61
2021/12/23 04:09:48;;;;;;;17.70;12.77;;;3.00;68.00;;;5.87;53.52;101418.16;4861471;29;20197;-62
2021/12/23 04:12:16;;;;;;;16.00;11.60;;;2.90;67.90;;;5.86;53.93;101411.28;4861927;29;20264;-65
2021/12/23 04:14:43;;;;;;;18.23;12.77;;;2.90;67.90;;;5.87;53.79;101405.09;4861488;29;20223;-62
2021/12/23 04:17:11;;;;;;;18.13;13.53;;;2.90;68.10;;;5.88;53.77;101404.97;4861901;29;20590;-63
2021/12/23 04:19:43;;;;;;;16.93;12.00;;;2.90;68.10;;;5.86;53.27;101395.59;4861887;29;20202;-61
2021/12/23 04:22:10;;;;;;;16.53;12.10;;;3.00;68.10;;;5.85;53.69;101388.72;4861995;29;20201;-62
2021/12/23 04:24:38;;;;;;;16.40;12.03;;;2.90;68.00;;;5.88;53.83;101388.47;4861402;29;20288;-62
2021/12/23 04:27:06;;;;;;;16.10;12.33;;;2.90;68.00;;;5.86;54.12;101364.25;4843280;29;20203;-63
2021/12/23 04:29:34;;;;;;;17.67;13.07;;;2.90;67.80;;;5.78;53.27;101348.34;4842569;29;20201;-63
2021/12/23 04:32:02;;;;;;;18.03;12.77;;;2.90;67.80;;;5.72;53.52;101351.50;4843532;29;20555;-64
2021/12/23 04:34:29;;;;;;;16.83;12.73;;;2.90;68.00;;;5.59;54.09;101336.00;4843139;29;20221;-63
2021/12/23 04:36:58;;;;;;;18.37;13.63;;;2.80;67.80;;;5.46;54.83;101317.97;4856820;29;20201;-62
2021/12/23 04:39:25;;;;;;;19.50;13.50;;;2.80;67.90;;;5.27;55.08;101315.22;4861762;29;20587;-62
2021/12/23 04:41:52;;;;;;;17.23;11.93;;;2.70;68.00;;;5.18;55.42;101294.25;4861738;29;20209;-64
2021/12/23 04:44:20;;;;;;;17.50;12.90;;;2.60;68.10;;;5.12;55.13;101279.94;4861209;29;20230;-63
2021/12/23 04:46:47;;;;;;;17.50;13.00;;;2.60;68.40;;;5.14;55.08;101267.59;4861697;29;20532;-62
2021/12/23 04:49:15;;;;;;;18.37;13.53;;;2.50;68.70;;;5.08;55.31;101268.09;4861627;29;20654;-62
2021/12/23 04:51:42;;;;;;;20.30;13.20;;;2.50;69.00;;;5.08;55.61;101268.09;4861705;29;20200;-67
2021/12/23 04:54:10;;;;;;;17.60;12.50;;;2.40;69.10;;;5.07;55.20;101266.44;4861061;29;20221;-64
2021/12/23 04:56:38;;;;;;;20.43;13.13;;;2.40;69.10;;;5.09;55.22;101264.53;4860710;29;20202;-65
2021/12/23 04:59:05;;;;;;;17.63;12.50;;;2.40;69.20;;;5.08;55.40;101278.53;4861348;29;20232;-64
2021/12/23 05:01:33;;;;;;;17.60;12.83;;;2.40;69.20;;;5.15;55.29;101290.13;4861822;29;20634;-64
2021/12/23 05:04:01;;;;;;;19.17;13.50;;;2.40;69.30;;;5.19;55.28;101280.25;4860801;29;20754;-64
2021/12/23 05:06:28;;;;;;;16.93;12.10;;;2.40;69.40;;;5.25;55.08;101270.13;4861399;29;20664;-61
2021/12/23 05:08:56;;;;;;;18.23;13.50;;;2.40;69.40;;;5.30;54.90;101267.97;4861527;29;20201;-64
2021/12/23 05:11:25;;;;;;;18.70;13.50;;;2.50;69.50;;;5.33;54.77;101262.50;4861373;29;20640;-61
2021/12/23 05:13:58;;;;;;;20.43;13.97;;;2.50;69.40;;;5.31;55.43;101253.97;4860766;29;20219;-64
2021/12/23 05:16:25;;;;;;;17.23;13.33;;;2.50;69.30;;;5.30;55.84;101262.75;4860618;29;20626;-61
2021/12/23 05:18:53;;;;;;;16.37;12.50;;;2.60;69.30;;;5.30;55.64;101262.75;4861843;29;20300;-64
2021/12/23 05:21:20;;;;;;;17.93;13.50;;;2.50;69.10;;;5.33;55.32;101266.88;4860718;29;20197;-64
2021/12/23 05:23:47;;;;;;;16.50;13.50;;;2.60;69.30;;;5.35;54.93;101271.03;4844235;29;20564;-62
2021/12/23 05:26:15;;;;;;;18.77;13.43;;;2.60;69.30;;;5.40;54.46;101305.41;4859115;29;20686;-62
2021/12/23 05:28:44;;;;;;;19.37;12.90;;;2.60;69.30;;;5.44;54.54;101306.78;4861258;29;20197;-63
2021/12/23 05:31:11;;;;;;;16.00;11.90;;;2.60;69.20;;;5.57;55.39;101337.09;4863034;29;20190;-65
2021/12/23 05:33:38;;;;;;;18.10;13.37;;;2.60;69.60;;;5.63;55.10;101263.50;4860546;29;20218;-65
2021/12/23 05:36:06;;;;;;;16.43;12.67;;;2.60;69.30;;;5.61;55.05;101270.63;4860492;29;20563;-65
2021/12/23 05:38:33;;;;;;;18.50;13.20;;;2.70;69.30;;;5.60;54.96;101254.16;4860479;29;20217;-64
2021/12/23 05:41:01;;;;;;;18.03;12.43;;;2.70;69.10;;;5.61;54.45;101239.31;4860462;29;20427;-64
2021/12/23 05:43:29;;;;;;;17.27;13.03;;;2.70;69.20;;;5.69;55.37;101227.25;4859673;29;20564;-64
2021/12/23 05:45:58;;;;;;;19.17;12.87;;;2.70;69.40;;;5.80;53.99;101260.28;4859509;29;20237;-64
2021/12/23 05:48:26;;;;;;;16.07;12.60;;;2.80;69.40;;;5.88;54.68;101257.88;4860453;29;20314;-64
2021/12/23 05:50:53;;;;;;;17.07;12.50;;;2.80;68.80;;;5.96;53.59;101218.88;4858727;29;20713;-64
2021/12/23 05:53:20;;;;;;;21.40;14.40;;;2.80;68.90;;;5.91;54.27;101189.69;4859985;29;20223;-64
2021/12/23 05:55:48;;;;;;;18.03;13.27;;;2.80;68.70;;;5.78;53.63;101194.28;4860340;29;20200;-65
2021/12/23 05:58:15;;;;;;;20.33;14.20;;;2.90;68.40;;;5.73;54.27;101230.44;4860491;29;20612;-65
2021/12/23 06:00:42;;;;;;;19.73;12.87;;;2.80;68.00;;;5.70;53.72;101213.25;4859494;29;20201;-64
2021/12/23 06:03:11;;;;;;;14.70;11.20;;;2.80;68.40;;;5.66;54.68;101201.38;4859832;29;20301;-64
2021/12/23 06:05:38;;;;;;;20.27;12.53;;;2.80;68.60;;;5.67;53.96;101202.22;4860169;29;20201;-64
2021/12/23 06:08:06;;;;;;;17.50;13.47;;;2.80;68.70;;;5.69;54.04;101190.69;4860499;29;20748;-64
2021/12/23 06:10:33;;;;;;;18.23;13.37;;;2.80;68.70;;;5.67;53.77;101229.16;4860456;29;20201;-63
2021/12/23 06:13:00;;;;;;;17.83;12.87;;;2.80;68.60;;;5.70;54.67;101286.34;4859712;29;20676;-64
2021/12/23 06:15:29;;;;;;;16.30;11.50;;;2.70;68.40;;;5.75;54.73;101246.81;4859926;29;20231;-64
2021/12/23 06:17:57;;;;;;;15.70;11.27;;;2.70;68.70;;;5.81;54.35;101220.16;4859769;29;20202;-62
2021/12/23 06:20:26;;;;;;;18.67;13.37;;;2.70;68.80;;;5.90;54.02;101225.44;4859899;29;20202;-64
2021/12/23 06:22:53;;;;;;;17.07;12.47;;;2.80;70.00;;;6.00;53.75;101267.25;4859546;29;20228;-64
2021/12/23 06:25:21;;;;;;;16.83;12.17;;;2.80;69.10;;;6.09;53.37;101250.78;4859945;29;20206;-64
2021/12/23 06:27:48;;;;;;;17.70;13.37;;;2.80;68.80;;;6.16;53.24;101233.63;4860428;29;20194;-64
2021/12/23 06:30:18;;;;;;;18.53;13.40;;;2.90;69.10;;;6.18;52.79;101223.84;4860051;29;20683;-64
2021/12/23 06:32:49;;;;;;;15.07;12.43;;;3.00;68.70;;;6.19;53.26;101235.97;4859708;29;20218;-64
2021/12/23 06:35:19;;;;;;;18.40;12.53;;;3.00;68.60;;;6.20;53.52;101211.50;4860112;29;20206;-63
2021/12/23 06:37:48;;;;;;;17.00;13.53;;;3.10;68.60;;;6.20;52.78;101195.81;4859249;29;20208;-64
2021/12/23 06:40:15;;;;;;;17.73;12.80;;;3.10;68.20;;;6.20;53.51;101211.50;4859738;29;20197;-66
2021/12/23 06:42:44;;;;;;;18.60;12.83;;;3.10;68.20;;;6.21;53.58;101213.13;4858314;29;20267;-65
2021/12/23 06:45:13;;;;;;;17.47;13.30;;;3.20;68.30;;;6.17;53.60;101217.00;4859627;29;20194;-63
2021/12/23 06:47:41;;;;;;;18.97;13.97;;;3.20;68.00;;;6.11;53.89;101222.72;4859303;29;20285;-63
2021/12/23 06:50:11;;;;;;;18.43;14.00;;;3.20;67.70;;;6.08;53.41;101196.91;4858204;29;20220;-63
2021/12/23 06:52:39;;;;;;;17.30;13.13;;;3.20;67.60;;;6.08;53.16;101208.19;4862149;29;20207;-64
2021/12/23 06:55:11;;;;;;;19.70;12.73;;;3.20;67.80;;;6.10;53.60;101187.13;4862026;29;20291;-64
2021/12/23 06:57:39;;;;;;;19.97;13.60;;;3.20;67.80;;;6.09;53.35;101195.91;4862970;29;20198;-64
2021/12/23 07:00:11;;;;;;;17.33;12.43;;;3.20;67.70;;;6.09;54.02;101193.31;4861758;29;20233;-63
2021/12/23 07:02:40;;;;;;;16.80;12.87;;;3.20;67.80;;;6.15;54.02;101195.41;4862069;29;20544;-64
2021/12/23 07:05:09;;;;;;;19.80;13.63;;;3.20;68.00;;;6.22;53.20;101185.22;4863007;29;20202;-64
2021/12/23 07:07:50;;;;;;;16.63;12.97;;;3.20;68.00;;;6.27;53.54;101188.25;4862304;29;20276;-63
2021/12/23 07:10:20;;;;;;;19.60;13.97;;;3.30;68.00;;;6.28;53.67;101172.44;4861666;29;20291;-64
2021/12/23 07:12:48;;;;;;;17.53;12.20;;;3.30;67.80;;;6.31;52.97;101203.53;4862647;29;20708;-64
2021/12/23 07:15:16;;;;;;;19.70;12.47;;;3.30;67.80;;;6.32;53.65;101205.19;4862669;29;20212;-64
2021/12/23 07:17:43;;;;;;;16.90;13.43;;;3.30;67.40;;;6.34;53.61;101174.53;4862502;29;20677;-62
2021/12/23 07:20:11;;;;;;;16.30;12.33;;;3.30;67.70;;;6.35;53.59;101176.16;4862259;29;20578;-63
2021/12/23 07:22:39;;;;;;;18.47;13.47;;;3.40;68.00;;;6.30;52.91;101154.81;4861905;29;20290;-63
2021/12/23 07:25:08;;;;;;;20.47;13.97;;;3.40;67.70;;;6.27;53.36;101164.75;4862646;29;20240;-64
2021/12/23 07:27:37;;;;;;;19.23;13.17;;;3.40;67.70;;;6.26;53.57;101150.00;4862840;29;20634;-64
2021/12/23 07:30:07;;;;;;;19.53;14.33;;;3.40;67.60;;;6.23;53.28;101142.47;4863755;29;20205;-64
2021/12/23 07:32:35;;;;;;;20.80;13.27;;;3.40;67.60;;;6.20;53.98;101127.88;4862876;29;20259;-65
2021/12/23 07:35:06;;;;;;;17.90;12.67;;;3.40;67.50;;;6.24;53.19;101167.63;4862374;29;20288;-62
2021/12/23 07:37:36;;;;;;;15.73;12.17;;;3.40;67.60;;;6.23;52.96;101153.72;4862488;29;20201;-63
2021/12/23 07:40:05;;;;;;;18.90;13.77;;;3.30;67.40;;;6.22;53.58;101151.25;4861306;29;20595;-64
2021/12/23 07:42:36;;;;;;;16.97;12.37;;;3.30;67.50;;;6.19;53.58;101152.34;4861774;29;20651;-63
2021/12/23 07:45:06;;;;;;;19.43;14.00;;;3.40;67.60;;;6.15;53.57;101137.91;4862248;29;20256;-62
2021/12/23 07:47:36;;;;;;;18.73;13.03;;;3.40;67.60;;;6.14;54.12;101136.25;4862250;29;20205;-62
2021/12/23 07:50:05;;;;;;;18.30;13.33;;;3.30;67.60;;;6.12;54.27;101128.56;4861026;29;20629;-60
2021/12/23 07:52:34;;;;;;;19.97;14.60;;;3.30;67.60;;;6.15;53.54;101130.06;4861589;29;20284;-63
2021/12/23 07:55:01;;;;;;;17.77;12.20;;;3.40;67.90;;;6.21;53.91;101113.84;4861603;29;20300;-62
2021/12/23 07:57:28;;;;;;;19.60;14.63;;;3.40;68.00;;;6.26;53.56;101109.03;4861191;29;20201;-61
2021/12/23 07:59:58;;;;;;;18.30;14.27;;;3.40;67.90;;;6.32;53.70;101110.28;4861619;29;20653;-62
2021/12/23 08:02:26;;;;;;;18.57;14.60;;;3.40;67.90;;;6.38;53.27;101120.16;4860869;29;20190;-63
2021/12/23 08:04:54;;;;;;;18.83;14.03;;;3.40;67.90;;;6.39;53.80;101122.66;4861500;29;20281;-65
2021/12/23 08:07:21;;;;;;;16.53;12.97;;;3.40;67.70;;;6.38;53.80;101115.78;4861777;29;20267;-63
2021/12/23 08:09:49;;;;;;;18.20;13.57;;;3.40;67.70;;;6.35;53.44;101142.16;4862367;29;20197;-61
2021/12/23 08:12:17;;;;;;;19.30;14.33;;;3.50;67.70;;;6.35;53.80;101123.03;4862395;29;20202;-62
2021/12/23 08:14:44;;;;;;;20.27;14.73;;;3.50;67.60;;;6.33;52.99;101115.34;4862316;29;20347;-64
2021/12/23 08:17:28;;;;;;;17.93;13.13;;;3.50;67.60;;;6.33;53.00;101133.66;4862856;29;20193;-62
2021/12/23 08:19:55;;;;;;;21.13;15.67;;;3.50;67.70;;;6.38;53.37;101126.22;4861924;29;20328;-62
2021/12/23 08:22:22;;;;;;;18.53;14.87;;;3.50;67.90;;;6.46;53.10;101126.38;4861082;29;20197;-63
2021/12/23 08:24:50;;;;;;;17.03;12.83;;;3.50;68.00;;;6.52;52.88;101128.41;4861535;29;20205;-62
2021/12/23 08:27:17;;;;;;;20.03;15.50;;;3.50;68.00;;;6.51;53.02;101126.75;4862038;29;20201;-61
2021/12/23 08:29:44;;;;;;;17.13;12.80;;;3.60;67.50;;;6.52;52.89;101125.81;4862024;29;20184;-62
2021/12/23 08:32:12;;;;;;;17.97;13.47;;;3.60;67.60;;;6.55;53.54;101122.91;4864611;29;20198;-64
2021/12/23 08:34:40;;;;;;;17.03;13.07;;;3.60;67.50;;;6.56;52.60;101116.72;4861362;29;20232;-63
2021/12/23 08:37:11;;;;;;;21.17;14.60;;;3.60;67.60;;;6.64;53.50;101111.63;4861300;29;20288;-61
2021/12/23 08:39:38;;;;;;;25.43;16.87;;;3.70;68.20;;;6.76;53.30;101099.22;4860834;29;20328;-65
2021/12/23 08:42:07;;;;;;;21.30;14.63;;;3.70;68.30;;;6.85;53.37;101087.88;4860391;29;20260;-65
2021/12/23 08:44:35;;;;;;;18.53;14.83;;;3.80;68.20;;;6.92;52.61;101064.63;4861277;29;20580;-64
2021/12/23 08:47:04;;;;;;;19.47;14.87;;;3.90;67.60;;;6.88;52.50;101019.59;4861588;29;20199;-64
2021/12/23 08:49:31;;;;;;;19.23;14.17;;;3.90;67.70;;;6.80;52.84;101006.41;4861420;29;20197;-63
2021/12/23 08:52:00;;;;;;;21.17;16.30;;;3.90;66.50;;;6.71;52.83;101030.81;4861271;29;20271;-63
2021/12/23 08:54:28;;;;;;;21.47;15.57;;;3.90;66.40;;;6.66;52.97;101006.88;4861012;29;20218;-61
2021/12/23 08:56:56;;;;;;;22.17;15.40;;;3.80;66.60;;;6.63;53.42;100994.91;4861770;29;20631;-63
2021/12/23 08:59:23;;;;;;;22.33;15.27;;;3.80;66.80;;;6.51;53.47;100985.56;4862036;29;20221;-63
2021/12/23 09:01:51;;;;;;;19.23;13.93;;;3.80;66.80;;;6.43;53.29;100971.56;4861848;29;20662;-63
2021/12/23 09:04:20;;;;;;;22.40;14.90;;;3.70;66.70;;;6.40;53.62;100996.22;4860980;29;20302;-61
2021/12/23 09:06:48;;;;;;;17.30;13.20;;;3.70;66.90;;;6.41;53.73;101034.47;4861731;29;20660;-60
2021/12/23 09:09:17;;;;;;;18.17;13.57;;;3.70;67.10;;;6.39;53.35;101038.19;4863155;29;20226;-64
2021/12/23 09:11:45;;;;;;;16.53;12.97;;;3.70;67.60;;;6.40;53.43;101035.41;4861867;29;20693;-63
2021/12/23 09:14:13;;;;;;;18.93;14.23;;;3.60;67.50;;;6.40;53.46;101018.91;4860970;29;20214;-63
2021/12/23 09:16:40;;;;;;;17.77;14.70;;;3.60;67.80;;;6.36;54.17;101009.72;4862104;29;20200;-63
2021/12/23 09:19:09;;;;;;;18.80;13.20;;;3.60;67.80;;;6.32;54.53;100996.13;4861822;29;20220;-64
2021/12/23 09:21:37;;;;;;;19.43;13.50;;;3.60;67.70;;;6.33;54.29;100992.50;4862766;29;20275;-64
2021/12/23 09:24:06;;;;;;;20.20;15.17;;;3.60;67.90;;;6.32;53.62;101009.19;4857371;29;20235;-64
2021/12/23 09:26:45;;;;;;;19.37;13.50;;;3.60;67.90;;;6.30;54.18;101012.91;4861524;29;20618;-64
2021/12/23 09:32:41;;;;;;;20.13;14.50;;;3.60;67.80;;;6.29;54.00;101011.22;4853696;29;20531;-65
2021/12/23 09:34:53;;;;;;;17.93;14.17;;;3.60;67.80;;;6.27;53.85;101018.41;4860200;29;20261;-63
2021/12/23 09:37:22;;;;;;;17.03;13.30;;;3.60;67.90;;;6.30;54.87;101029.38;4860325;29;20194;-62
2021/12/23 09:39:54;;;;;;;16.17;13.17;;;3.60;68.10;;;6.35;54.41;101016.72;4860091;29;20218;-63
2021/12/23 09:42:27;;;;;;;19.60;13.80;;;3.60;68.00;;;6.38;53.61;101011.22;4858503;29;20606;-67
2021/12/23 09:44:58;;;;;;;19.97;15.20;;;3.60;68.10;;;6.44;54.60;101004.59;4852276;29;20241;-64
2021/12/23 09:47:28;;;;;;;20.20;13.93;;;3.60;68.30;;;6.49;54.16;100991.94;4849940;29;20559;-64
2021/12/23 09:49:59;;;;;;;19.67;13.90;;;3.70;68.30;;;6.51;54.06;100976.94;4840676;29;20268;-64
2021/12/23 09:52:34;;;;;;;18.17;14.53;;;3.70;68.20;;;6.59;53.76;100983.09;4850198;29;20221;-63
2021/12/23 09:55:06;;;;;;;18.83;13.67;;;3.70;68.60;;;6.64;54.05;100970.41;4847573;29;20288;-64
2021/12/23 09:57:35;;;;;;;19.40;14.53;;;3.80;68.40;;;6.66;54.17;100973.69;4852335;29;20592;-62
2021/12/23 10:00:10;;;;;;;20.47;15.50;;;3.80;68.20;;;6.68;54.08;100971.75;4842389;29;20578;-64
2021/12/23 10:02:41;;;;;;;18.57;13.60;;;3.90;68.20;;;6.71;53.63;100963.63;4850429;29;20204;-66
2021/12/23 10:05:20;;;;;;;17.93;14.60;;;3.90;67.90;;;6.69;53.59;100962.13;4856679;29;20264;-64
2021/12/23 10:07:49;;;;;;;21.67;13.60;;;3.90;67.80;;;6.69;54.03;100955.13;4856914;29;20201;-62
2021/12/23 10:10:24;;;;;;;17.57;13.07;;;3.90;67.70;;;6.72;53.97;100951.38;4848368;29;20200;-63
2021/12/23 10:38:03;;;;;;;17.17;14.07;;;4.00;66.90;;;6.59;53.99;100898.59;4852609;29;20234;-64
2021/12/23 10:40:31;;;;;;;17.90;14.37;;;4.00;67.10;;;6.64;53.83;100886.72;4853437;29;20322;-65
2021/12/23 10:42:59;;;;;;;18.67;13.87;;;4.00;67.30;;;6.72;53.82;100878.16;4856189;29;20310;-65
2021/12/23 10:45:38;;;;;;;17.73;13.03;;;4.00;67.20;;;6.76;53.73;100875.09;4854811;29;20352;-64
2021/12/23 10:48:11;;;;;;;18.43;14.33;;;4.00;67.20;;;6.78;53.16;100856.63;4859509;29;20214;-63
2021/12/23 10:53:15;;;;;;;18.87;13.77;;;4.10;67.10;;;6.83;52.81;100829.09;4853043;29;20725;-64
2021/12/23 10:58:29;;;;;;;19.40;14.00;;;4.10;67.00;;;6.92;53.04;100829.97;4853110;29;20218;-63
2021/12/23 11:01:01;;;;;;;21.43;15.23;;;4.20;66.90;;;6.99;52.89;100819.75;4854158;29;20635;-61